createdAt,value
2019-05-02T00:01:40.907Z,7.06
2019-05-02T00:04:46.105Z,7.00
2019-05-02T00:07:53.919Z,6.95
2019-05-02T00:10:59.355Z,6.82
2019-05-02T00:14:05.086Z,6.77
2019-05-02T00:17:10.769Z,6.76
2019-05-02T00:20:21.278Z,6.65
2019-05-02T00:23:28.122Z,6.64
2019-05-02T00:26:31.386Z,6.84
2019-05-02T00:29:36.649Z,6.81
2019-05-02T00:32:41.913Z,6.80
2019-05-02T00:35:47.631Z,6.80
2019-05-02T00:38:52.901Z,6.60
2019-05-02T00:41:58.122Z,6.52
2019-05-02T00:45:03.246Z,6.56
2019-05-02T00:48:23.136Z,6.44
2019-05-02T00:51:28.153Z,6.57
2019-05-02T00:54:33.396Z,6.37
2019-05-02T00:57:38.563Z,6.27
2019-05-02T01:01:01.522Z,6.26
2019-05-02T01:04:16.140Z,6.42
2019-05-02T01:07:25.498Z,6.44
2019-05-02T01:10:28.214Z,6.45
2019-05-02T01:13:33.385Z,6.34
2019-05-02T01:16:38.548Z,6.19
2019-05-02T01:19:47.419Z,6.26
2019-05-02T01:22:52.236Z,6.26
2019-05-02T01:25:57.536Z,6.20
2019-05-02T01:29:09.040Z,6.41
2019-05-02T01:32:30.116Z,6.17
2019-05-02T01:35:50.096Z,6.12
2019-05-02T01:38:55.275Z,6.14
2019-05-02T01:42:04.141Z,6.10
2019-05-02T01:45:11.261Z,6.09
2019-05-02T01:48:14.189Z,6.12
2019-05-02T01:51:19.378Z,6.05
2019-05-02T01:54:24.567Z,6.07
2019-05-02T01:57:29.768Z,6.04
2019-05-02T02:00:34.955Z,6.02
2019-05-02T02:03:40.439Z,6.06
2019-05-02T02:06:46.999Z,6.15
2019-05-02T02:09:52.150Z,6.08
2019-05-02T02:13:04.695Z,6.15
2019-05-02T02:16:05.840Z,6.26
2019-05-02T02:19:17.228Z,6.27
2019-05-02T02:22:39.205Z,6.31
2019-05-02T02:25:50.920Z,6.30
2019-05-02T02:28:56.086Z,6.23
2019-05-02T02:32:02.352Z,6.22
2019-05-02T02:35:09.928Z,6.34
2019-05-02T02:38:14.690Z,6.36
2019-05-02T02:41:19.861Z,6.47
2019-05-02T02:44:42.712Z,6.36
2019-05-02T02:47:52.964Z,6.49
2019-05-02T02:50:54.897Z,6.44
2019-05-02T02:54:04.043Z,6.52
2019-05-02T02:57:19.959Z,6.53
2019-05-02T03:00:17.043Z,6.59
2019-05-02T03:03:27.758Z,6.63
2019-05-02T03:06:29.361Z,6.64
2019-05-02T03:09:34.498Z,6.55
2019-05-02T03:12:57.661Z,6.55
2019-05-02T03:16:07.184Z,6.54
2019-05-02T03:19:14.865Z,6.56
2019-05-02T03:22:17.519Z,6.51
2019-05-02T03:25:26.917Z,6.36
2019-05-02T03:28:30.016Z,6.19
2019-05-02T03:31:35.158Z,6.03
2019-05-02T03:34:53.687Z,5.98
2019-05-02T03:37:51.340Z,5.82
2019-05-02T03:40:55.075Z,5.75
2019-05-02T03:44:10.601Z,5.74
2019-05-02T03:47:07.074Z,5.61
2019-05-02T03:50:12.483Z,5.55
2019-05-02T03:53:24.941Z,5.51
2019-05-02T03:56:24.738Z,5.45
2019-05-02T03:59:38.949Z,5.54
2019-05-02T04:02:38.130Z,5.44
2019-05-02T04:05:43.378Z,5.42
2019-05-02T04:08:58.848Z,5.45
2019-05-02T04:11:56.055Z,5.44
2019-05-02T04:15:01.286Z,5.56
2019-05-02T04:18:08.417Z,5.61
2019-05-02T04:21:14.072Z,5.77
2019-05-02T04:24:19.803Z,5.82
2019-05-02T04:27:27.962Z,5.96
2019-05-02T04:30:32.855Z,6.16
2019-05-02T04:33:38.004Z,6.38
2019-05-02T04:36:46.305Z,6.65
2019-05-02T04:39:53.654Z,6.82
2019-05-02T04:43:01.922Z,7.20
2019-05-02T04:46:12.090Z,7.37
2019-05-02T04:49:11.693Z,7.37
2019-05-02T04:52:18.231Z,7.46
2019-05-02T04:55:30.241Z,7.48
2019-05-02T04:58:34.804Z,7.47
2019-05-02T05:01:43.234Z,7.42
2019-05-02T05:04:46.988Z,7.45
2019-05-02T05:07:51.201Z,7.44
2019-05-02T05:10:57.363Z,7.50
2019-05-02T05:14:02.645Z,7.56
2019-05-02T05:17:08.070Z,7.69
2019-05-02T05:20:15.700Z,7.70
2019-05-02T05:23:38.293Z,8.31
2019-05-02T05:26:44.848Z,9.00
2019-05-02T05:29:53.448Z,9.71
2019-05-02T05:32:58.324Z,9.85
2019-05-02T05:36:03.676Z,10.25
2019-05-02T05:39:11.677Z,10.44
2019-05-02T05:42:17.843Z,10.32
2019-05-02T05:45:22.724Z,10.64
2019-05-02T05:48:32.116Z,10.48
2019-05-02T05:51:34.665Z,10.53
2019-05-02T05:54:41.991Z,11.01
2019-05-02T05:57:47.622Z,11.34
2019-05-02T06:00:55.640Z,11.08
2019-05-02T06:04:00.552Z,11.01
2019-05-02T06:07:07.276Z,10.98
2019-05-02T06:10:12.698Z,11.17
2019-05-02T06:13:18.025Z,11.38
2019-05-02T06:16:23.202Z,11.72
2019-05-02T06:19:28.474Z,11.46
2019-05-02T06:22:33.646Z,11.54
2019-05-02T06:25:42.203Z,11.74
2019-05-02T06:28:45.611Z,11.86
2019-05-02T06:31:50.886Z,11.87
2019-05-02T06:34:56.037Z,11.68
2019-05-02T06:38:01.338Z,12.16
2019-05-02T06:41:06.660Z,11.86
2019-05-02T06:44:11.773Z,12.64
2019-05-02T06:47:16.882Z,12.28
2019-05-02T06:50:24.670Z,12.59
2019-05-02T06:53:28.884Z,12.74
2019-05-02T06:56:34.121Z,13.51
2019-05-02T06:59:39.339Z,13.46
2019-05-02T07:02:44.751Z,13.13
2019-05-02T07:05:49.947Z,13.08
2019-05-02T07:08:55.247Z,13.28
2019-05-02T07:12:01.653Z,13.69
2019-05-02T07:15:10.974Z,13.69
2019-05-02T07:18:17.410Z,13.26
2019-05-02T07:21:23.542Z,14.00
2019-05-02T07:24:30.566Z,14.02
2019-05-02T07:27:35.916Z,14.11
2019-05-02T07:30:41.161Z,14.52
2019-05-02T07:33:46.334Z,14.91
2019-05-02T07:36:51.582Z,15.39
2019-05-02T07:39:56.675Z,15.79
2019-05-02T07:43:01.911Z,15.97
2019-05-02T07:46:07.041Z,16.38
2019-05-02T07:49:12.255Z,16.59
2019-05-02T07:52:17.383Z,17.12
2019-05-02T07:55:22.650Z,17.06
2019-05-02T07:58:28.861Z,16.64
2019-05-02T08:01:33.974Z,17.42
2019-05-02T08:04:43.664Z,17.01
2019-05-02T08:07:46.283Z,17.28
2019-05-02T08:10:53.812Z,17.79
2019-05-02T08:14:00.473Z,17.62
2019-05-02T08:17:10.461Z,18.29
2019-05-02T08:20:18.446Z,17.55
2019-05-02T08:23:25.529Z,17.67
2019-05-02T08:26:29.969Z,17.78
2019-05-02T08:29:36.204Z,17.87
2019-05-02T08:32:41.400Z,17.14
2019-05-02T08:35:46.640Z,17.41
2019-05-02T08:38:53.578Z,17.32
2019-05-02T08:41:58.831Z,17.27
2019-05-02T08:45:05.594Z,17.29
2019-05-02T08:48:11.115Z,17.08
2019-05-02T08:51:16.268Z,17.48
2019-05-02T08:54:21.433Z,17.31
2019-05-02T08:57:29.969Z,17.50
2019-05-02T09:00:37.428Z,17.93
2019-05-02T09:03:54.803Z,18.15
2019-05-02T09:06:47.415Z,18.37
2019-05-02T09:09:55.408Z,17.99
2019-05-02T09:12:59.481Z,17.82
2019-05-02T09:16:05.963Z,18.11
2019-05-02T09:19:15.214Z,18.63
2019-05-02T09:22:18.201Z,18.18
2019-05-02T09:25:23.416Z,17.86
2019-05-02T09:28:28.650Z,18.44
2019-05-02T09:31:36.817Z,18.44
2019-05-02T09:34:42.360Z,18.13
2019-05-02T09:37:47.621Z,18.42
2019-05-02T09:40:56.166Z,18.38
2019-05-02T09:43:59.717Z,18.86
2019-05-02T09:47:05.088Z,18.60
2019-05-02T09:50:13.953Z,19.23
2019-05-02T09:53:20.867Z,19.68
2019-05-02T09:56:25.987Z,19.25
2019-05-02T09:59:33.257Z,20.15
2019-05-02T10:02:41.758Z,18.83
2019-05-02T10:05:46.439Z,19.72
2019-05-02T10:08:52.156Z,19.72
2019-05-02T10:11:57.314Z,19.33
2019-05-02T10:15:02.512Z,18.90
2019-05-02T10:18:12.012Z,19.13
2019-05-02T10:21:17.193Z,19.13
2019-05-02T10:24:22.529Z,19.96
2019-05-02T10:27:27.683Z,20.16
2019-05-02T10:30:36.062Z,20.14
2019-05-02T10:33:42.042Z,19.89
2019-05-02T10:36:54.197Z,19.91
2019-05-02T10:39:55.868Z,20.55
2019-05-02T10:43:02.893Z,20.59
2019-05-02T10:46:27.763Z,20.32
2019-05-02T10:49:46.987Z,20.26
2019-05-02T10:52:52.717Z,20.46
2019-05-02T10:55:58.073Z,20.61
2019-05-02T10:59:03.282Z,20.24
2019-05-02T11:02:27.526Z,20.63
2019-05-02T11:05:33.686Z,20.96
2019-05-02T11:08:44.025Z,20.66
2019-05-02T11:11:45.862Z,20.79
2019-05-02T11:14:56.454Z,20.95
2019-05-02T11:18:02.321Z,20.59
2019-05-02T11:21:08.381Z,20.26
2019-05-02T11:24:14.324Z,19.59
2019-05-02T11:27:19.634Z,20.19
2019-05-02T11:30:26.635Z,20.47
2019-05-02T11:33:32.538Z,20.30
2019-05-02T11:36:37.921Z,20.50
2019-05-02T11:39:50.196Z,20.38
2019-05-02T11:42:52.065Z,20.32
2019-05-02T11:46:06.030Z,20.70
2019-05-02T11:49:04.289Z,20.29
2019-05-02T11:52:09.544Z,20.75
2019-05-02T11:55:19.002Z,21.34
2019-05-02T11:58:22.969Z,20.99
2019-05-02T12:01:37.313Z,20.51
2019-05-02T12:04:36.267Z,20.82
2019-05-02T12:07:41.834Z,21.41
2019-05-02T12:10:47.127Z,20.87
2019-05-02T12:13:56.819Z,20.87
2019-05-02T12:16:59.321Z,20.99
2019-05-02T12:20:04.678Z,21.28
2019-05-02T12:23:09.999Z,21.24
2019-05-02T12:26:15.262Z,21.62
2019-05-02T12:29:21.835Z,21.01
2019-05-02T12:32:45.412Z,20.43
2019-05-02T12:35:52.514Z,20.44
2019-05-02T12:38:57.487Z,19.81
2019-05-02T12:42:03.518Z,20.21
2019-05-02T12:45:09.130Z,20.09
2019-05-02T12:48:14.267Z,19.67
2019-05-02T12:51:19.642Z,19.95
2019-05-02T12:54:25.900Z,19.77
2019-05-02T12:57:32.121Z,20.13
2019-05-02T13:00:37.410Z,20.02
2019-05-02T13:03:47.163Z,20.10
2019-05-02T13:06:53.064Z,20.51
2019-05-02T13:09:58.397Z,20.53
2019-05-02T13:13:05.307Z,20.66
2019-05-02T13:16:12.200Z,20.80
2019-05-02T13:19:18.124Z,20.66
2019-05-02T13:22:47.999Z,20.87
2019-05-02T13:25:53.179Z,20.91
2019-05-02T13:28:58.400Z,21.33
2019-05-02T13:32:18.929Z,21.16
2019-05-02T13:35:49.195Z,20.24
2019-05-02T13:38:54.402Z,20.67
2019-05-02T13:42:01.635Z,20.67
2019-05-02T13:45:26.585Z,20.44
2019-05-02T13:48:32.390Z,20.51
2019-05-02T13:51:38.652Z,20.21
2019-05-02T13:54:43.805Z,20.89
2019-05-02T13:57:49.057Z,20.78
2019-05-02T14:00:54.262Z,20.77
2019-05-02T14:04:03.577Z,21.02
2019-05-02T14:07:12.266Z,21.01
2019-05-02T14:10:23.791Z,20.45
2019-05-02T14:13:29.067Z,20.90
2019-05-02T14:16:34.283Z,22.03
2019-05-02T14:19:39.550Z,22.04
2019-05-02T14:22:44.698Z,21.56
2019-05-02T14:25:51.935Z,20.91
2019-05-02T14:28:56.677Z,20.99
2019-05-02T14:32:03.077Z,21.40
2019-05-02T14:35:24.003Z,21.08
2019-05-02T14:38:26.641Z,20.56
2019-05-02T14:41:40.900Z,19.51
2019-05-02T14:45:01.494Z,19.40
2019-05-02T14:47:49.751Z,20.08
2019-05-02T14:50:52.467Z,20.96
2019-05-02T14:54:03.650Z,20.14
2019-05-02T14:57:11.957Z,19.82
2019-05-02T15:00:17.572Z,19.77
2019-05-02T15:03:24.523Z,19.79
2019-05-02T15:06:33.011Z,19.81
2019-05-02T15:09:36.591Z,20.44
2019-05-02T15:12:42.855Z,20.59
2019-05-02T15:15:47.976Z,20.52
2019-05-02T15:18:57.054Z,20.25
2019-05-02T15:22:02.036Z,20.69
2019-05-02T15:25:12.251Z,20.72
2019-05-02T15:28:19.373Z,20.36
2019-05-02T15:31:32.403Z,20.19
2019-05-02T15:35:02.441Z,20.06
2019-05-02T15:38:07.903Z,20.69
2019-05-02T15:41:15.363Z,20.84
2019-05-02T15:44:23.571Z,19.98
2019-05-02T15:47:26.805Z,20.05
2019-05-02T15:50:32.619Z,19.42
2019-05-02T15:54:05.999Z,19.71
2019-05-02T15:57:05.861Z,19.78
2019-05-02T16:00:15.519Z,19.71
2019-05-02T16:03:22.029Z,19.20
2019-05-02T16:06:33.185Z,19.20
2019-05-02T16:09:34.055Z,19.34
2019-05-02T16:12:41.788Z,18.99
2019-05-02T16:15:47.079Z,19.11
2019-05-02T16:18:52.770Z,18.84
2019-05-02T16:22:15.232Z,19.03
2019-05-02T16:25:24.459Z,19.09
2019-05-02T16:28:27.519Z,19.09
2019-05-02T16:31:34.465Z,18.95
2019-05-02T16:34:54.642Z,19.03
2019-05-02T16:38:01.391Z,18.92
2019-05-02T16:41:09.719Z,18.92
2019-05-02T16:44:14.634Z,18.43
2019-05-02T16:47:21.840Z,18.25
2019-05-02T16:50:27.611Z,17.96
2019-05-02T16:53:33.732Z,17.76
2019-05-02T16:56:42.304Z,17.92
2019-05-02T16:59:46.505Z,17.80
2019-05-02T17:02:51.736Z,17.87
2019-05-02T17:05:57.000Z,17.69
2019-05-02T17:09:17.828Z,17.72
2019-05-02T17:12:23.022Z,17.68
2019-05-02T17:15:35.148Z,17.45
2019-05-02T17:18:39.043Z,17.33
2019-05-02T17:21:53.066Z,17.33
2019-05-02T17:24:52.617Z,17.11
2019-05-02T17:28:02.394Z,17.05
2019-05-02T17:31:05.025Z,17.04
2019-05-02T17:34:13.390Z,16.95
2019-05-02T17:37:17.295Z,16.96
2019-05-02T17:40:26.079Z,16.88
2019-05-02T17:43:29.455Z,16.86
2019-05-02T17:46:36.587Z,16.90
2019-05-02T17:49:42.342Z,16.95
2019-05-02T17:52:51.706Z,16.85
2019-05-02T17:55:58.702Z,16.88
2019-05-02T17:59:03.997Z,16.71
2019-05-02T18:02:12.451Z,16.54
2019-05-02T18:05:16.431Z,16.46
2019-05-02T18:08:21.924Z,16.34
2019-05-02T18:11:29.594Z,16.25
2019-05-02T18:14:34.292Z,15.90
2019-05-02T18:17:39.519Z,15.61
2019-05-02T18:20:46.556Z,15.37
2019-05-02T18:23:52.113Z,15.41
2019-05-02T18:26:57.459Z,15.27
2019-05-02T18:30:02.772Z,15.32
2019-05-02T18:33:09.573Z,15.32
2019-05-02T18:36:17.282Z,15.03
2019-05-02T18:39:22.235Z,15.01
2019-05-02T18:42:27.514Z,14.81
2019-05-02T18:45:32.818Z,14.81
2019-05-02T18:48:42.082Z,14.78
2019-05-02T18:51:48.327Z,14.70
2019-05-02T18:54:52.006Z,14.70
2019-05-02T18:58:02.464Z,14.44
2019-05-02T19:01:08.605Z,14.26
2019-05-02T19:04:13.214Z,14.21
2019-05-02T19:07:29.897Z,14.14
2019-05-02T19:10:25.668Z,13.83
2019-05-02T19:13:32.701Z,13.68
2019-05-02T19:16:37.965Z,13.43
2019-05-02T19:19:43.196Z,13.32
2019-05-02T19:22:52.895Z,13.41
2019-05-02T19:25:55.582Z,13.39
2019-05-02T19:29:21.516Z,13.16
2019-05-02T19:32:28.367Z,12.98
2019-05-02T19:35:37.610Z,12.89
2019-05-02T19:38:42.702Z,12.88
2019-05-02T19:41:47.697Z,12.77
2019-05-02T19:44:52.893Z,12.70
2019-05-02T19:47:58.194Z,12.67
2019-05-02T19:51:04.506Z,12.88
2019-05-02T19:54:09.707Z,12.73
2019-05-02T19:57:17.154Z,12.80
2019-05-02T20:00:21.837Z,12.84
2019-05-02T20:03:27.109Z,12.90
2019-05-02T20:06:32.606Z,13.02
2019-05-02T20:09:38.154Z,13.24
2019-05-02T20:12:48.194Z,13.13
2019-05-02T20:16:02.635Z,13.11
2019-05-02T20:19:06.843Z,12.86
2019-05-02T20:22:15.213Z,12.73
2019-05-02T20:25:20.414Z,12.49
2019-05-02T20:28:25.821Z,12.45
2019-05-02T20:31:32.180Z,12.25
2019-05-02T20:34:37.583Z,12.13
2019-05-02T20:37:42.898Z,12.18
2019-05-02T20:40:48.075Z,12.17
2019-05-02T20:43:53.334Z,12.16
2019-05-02T20:46:58.460Z,12.24
2019-05-02T20:50:05.914Z,12.24
2019-05-02T20:53:12.750Z,12.07
2019-05-02T20:56:17.479Z,12.09
2019-05-02T20:59:23.866Z,12.17
2019-05-02T21:02:29.076Z,12.14
2019-05-02T21:05:53.293Z,12.17
2019-05-02T21:09:14.655Z,12.21
2019-05-02T21:12:19.945Z,12.19
2019-05-02T21:15:25.108Z,12.17
2019-05-02T21:18:30.307Z,11.92
2019-05-02T21:21:36.290Z,11.82
2019-05-02T21:24:42.055Z,11.83
2019-05-02T21:27:48.539Z,11.75
2019-05-02T21:30:55.105Z,11.82
2019-05-02T21:34:02.438Z,11.93
2019-05-02T21:37:07.391Z,12.16
2019-05-02T21:40:12.743Z,12.11
2019-05-02T21:43:18.040Z,12.11
2019-05-02T21:46:24.264Z,12.34
2019-05-02T21:49:57.827Z,12.25
2019-05-02T21:53:22.267Z,12.13
2019-05-02T21:56:43.391Z,12.17
2019-05-02T21:59:48.535Z,12.49
2019-05-02T22:02:53.844Z,12.38
2019-05-02T22:05:59.071Z,12.29
2019-05-02T22:09:06.576Z,12.36
2019-05-02T22:12:13.152Z,12.32
2019-05-02T22:15:18.405Z,12.34
2019-05-02T22:18:23.702Z,12.23
2019-05-02T22:21:28.931Z,12.18
2019-05-02T22:24:34.083Z,12.06
2019-05-02T22:27:39.403Z,12.06
2019-05-02T22:30:44.473Z,11.88
2019-05-02T22:33:52.793Z,11.78
2019-05-02T22:36:57.990Z,11.68
2019-05-02T22:40:07.190Z,11.54
2019-05-02T22:43:13.046Z,11.48
2019-05-02T22:46:37.163Z,11.46
2019-05-02T22:49:42.464Z,11.40
2019-05-02T22:52:49.365Z,11.45
2019-05-02T22:55:54.606Z,11.32
2019-05-02T22:58:59.731Z,11.22
2019-05-02T23:02:04.913Z,11.66
2019-05-02T23:05:12.293Z,11.66
2019-05-02T23:08:17.073Z,11.45
2019-05-02T23:11:24.502Z,11.31
2019-05-02T23:14:29.084Z,11.10
2019-05-02T23:17:34.204Z,10.99
2019-05-02T23:20:39.401Z,10.85
2019-05-02T23:23:44.694Z,10.83
2019-05-02T23:26:59.474Z,10.89
2019-05-02T23:30:05.390Z,10.84
2019-05-02T23:33:10.551Z,10.87
2019-05-02T23:36:15.741Z,11.10
2019-05-02T23:39:20.967Z,10.97
2019-05-02T23:42:26.278Z,11.15
2019-05-02T23:45:31.694Z,11.13
2019-05-02T23:48:37.059Z,11.26
2019-05-02T23:51:42.821Z,11.22
2019-05-02T23:54:52.114Z,11.46
2019-05-02T23:57:55.047Z,11.38
